Time;durP1;ratioP1;P1;durP2;ratioP2;P2;SDS_P1;SDS_P2;PMS_P1;PMS_P2;Temp;Humidity;BMP_temperature;BMP_pressure;BME280_temperature;BME280_humidity;BME280_pressure;Samples;Min_cycle;Max_cycle;Signal;HPM_P1;HPM_P2
2021/07/19 00:01:57;;;;;;;;;;;23.60;54.00;;;;;;1634695;72;781;-71
2021/07/19 00:03:59;;;;;;;;;;;23.60;53.90;;;;;;1640778;72;781;-72
2021/07/19 00:06:01;;;;;;;;;;;23.60;53.90;;;;;;1635407;72;1170;-70
2021/07/19 00:08:03;;;;;;;;;;;23.60;53.90;;;;;;1637290;72;768;-70
2021/07/19 00:10:05;;;;;;;;;;;23.60;53.90;;;;;;1634722;72;818;-69
2021/07/19 00:12:07;;;;;;;;;;;23.60;53.90;;;;;;1637785;72;788;-70
2021/07/19 00:14:09;;;;;;;;;;;23.60;53.90;;;;;;1637137;72;671;-71
2021/07/19 00:16:11;;;;;;;;;;;23.60;53.90;;;;;;1642375;72;1109;-72
2021/07/19 00:18:13;;;;;;;;;;;23.60;53.90;;;;;;1634908;72;725;-70
2021/07/19 00:20:15;;;;;;;;;;;23.60;53.90;;;;;;1638952;72;1939;-70
2021/07/19 00:22:17;;;;;;;;;;;23.60;53.90;;;;;;1635551;72;761;-70
2021/07/19 00:24:19;;;;;;;;;;;23.60;53.90;;;;;;1637034;72;757;-70
2021/07/19 00:26:21;;;;;;;;;;;23.60;53.90;;;;;;1632874;72;1104;-70
2021/07/19 00:28:23;;;;;;;;;;;23.60;53.90;;;;;;1636293;72;812;-72
2021/07/19 00:30:25;;;;;;;;;;;23.60;53.90;;;;;;1639009;72;816;-71
2021/07/19 00:32:27;;;;;;;;;;;23.60;53.90;;;;;;1639424;72;897;-72
2021/07/19 00:34:28;;;;;;;;;;;23.60;53.80;;;;;;1623064;72;731;-69
2021/07/19 00:36:30;;;;;;;;;;;23.60;53.90;;;;;;1619700;72;769;-72
2021/07/19 00:38:32;;;;;;;;;;;23.60;53.90;;;;;;1634840;72;800;-72
2021/07/19 00:40:38;;;;;;;;;;;23.60;53.90;;;;;;1629101;72;1925;-67
2021/07/19 00:42:40;;;;;;;;;;;23.60;53.90;;;;;;1625274;72;1273;-69
2021/07/19 00:44:41;;;;;;;;;;;23.60;53.80;;;;;;1624947;72;1685;-71
2021/07/19 00:46:44;;;;;;;;;;;23.60;53.80;;;;;;1639834;72;699;-72
2021/07/19 00:48:46;;;;;;;;;;;23.60;53.80;;;;;;1642321;72;784;-71
2021/07/19 00:50:47;;;;;;;;;;;23.60;53.80;;;;;;1629639;72;793;-70
2021/07/19 00:52:56;;;;;;;;;;;23.60;53.70;;;;;;1627582;72;810;-73
2021/07/19 00:54:53;;;;;;;;;;;23.60;53.70;;;;;;1628287;72;1525;-70
2021/07/19 00:56:55;;;;;;;;;;;23.60;53.70;;;;;;1634315;72;701;-70
2021/07/19 00:58:57;;;;;;;;;;;23.60;53.70;;;;;;1627825;72;719;-70
2021/07/19 01:00:59;;;;;;;;;;;23.50;53.70;;;;;;1625273;72;1929;-70
2021/07/19 01:03:01;;;;;;;;;;;23.50;53.60;;;;;;1625286;72;944;-70
2021/07/19 01:05:03;;;;;;;;;;;23.50;53.60;;;;;;1622313;72;1174;-71
2021/07/19 01:07:05;;;;;;;;;;;23.60;53.60;;;;;;1637212;72;653;-71
2021/07/19 01:09:07;;;;;;;;;;;23.60;53.60;;;;;;1627392;72;755;-71
2021/07/19 01:11:09;;;;;;;;;;;23.60;53.60;;;;;;1625631;72;713;-71
2021/07/19 01:13:11;;;;;;;;;;;23.60;53.60;;;;;;1625383;72;825;-71
2021/07/19 01:15:13;;;;;;;;;;;23.60;53.60;;;;;;1639000;72;1138;-73
2021/07/19 01:17:15;;;;;;;;;;;23.60;53.60;;;;;;1629905;72;755;-73
2021/07/19 01:19:17;;;;;;;;;;;23.50;53.50;;;;;;1644606;72;744;-70
2021/07/19 01:21:20;;;;;;;;;;;23.50;53.50;;;;;;1627086;72;1927;-71
2021/07/19 01:23:27;;;;;;;;;;;23.60;53.50;;;;;;1644447;72;811;-70
2021/07/19 01:25:45;;;;;;;;;;;23.60;53.50;;;;;;1610539;71;2111;-72
2021/07/19 01:28:05;;;;;;;;;;;23.50;53.50;;;;;;1564182;74;737;-72
2021/07/19 01:30:07;;;;;;;;;;;23.50;53.50;;;;;;1563829;74;761;-72
2021/07/19 01:32:09;;;;;;;;;;;23.50;53.50;;;;;;1563338;74;765;-72
2021/07/19 01:34:12;;;;;;;;;;;23.50;53.50;;;;;;1563092;74;806;-72
2021/07/19 01:36:15;;;;;;;;;;;23.50;53.50;;;;;;1583435;73;1163;-72
2021/07/19 01:38:17;;;;;;;;;;;23.50;53.40;;;;;;1564467;74;791;-72
2021/07/19 01:40:19;;;;;;;;;;;23.50;53.40;;;;;;1582101;74;1931;-72
2021/07/19 01:42:21;;;;;;;;;;;23.50;53.40;;;;;;1576200;74;726;-73
2021/07/19 01:44:23;;;;;;;;;;;23.50;53.40;;;;;;1572023;74;761;-74
2021/07/19 01:46:25;;;;;;;;;;;23.60;53.30;;;;;;1580452;73;1138;-73
2021/07/19 01:48:27;;;;;;;;;;;23.50;53.30;;;;;;1574477;74;824;-72
2021/07/19 01:50:29;;;;;;;;;;;23.50;53.20;;;;;;1588041;74;754;-73
2021/07/19 01:52:31;;;;;;;;;;;23.60;53.20;;;;;;1573882;74;775;-74
2021/07/19 01:54:33;;;;;;;;;;;23.50;53.20;;;;;;1572009;74;776;-73
2021/07/19 01:56:35;;;;;;;;;;;23.50;53.20;;;;;;1573044;74;1087;-72
2021/07/19 01:58:37;;;;;;;;;;;23.50;53.20;;;;;;1577258;74;817;-72
2021/07/19 02:00:38;;;;;;;;;;;23.50;53.20;;;;;;1578098;74;1914;-70
2021/07/19 02:02:40;;;;;;;;;;;23.50;53.20;;;;;;1575403;74;773;-72
2021/07/19 02:04:42;;;;;;;;;;;23.50;53.10;;;;;;1573979;74;804;-72
2021/07/19 02:06:44;;;;;;;;;;;23.50;53.20;;;;;;1569229;74;1073;-73
2021/07/19 02:08:49;;;;;;;;;;;23.50;53.10;;;;;;1573660;74;787;-73
2021/07/19 02:10:52;;;;;;;;;;;23.50;53.10;;;;;;1582263;74;804;-73
2021/07/19 02:12:56;;;;;;;;;;;23.50;53.00;;;;;;1580357;74;720;-73
2021/07/19 02:14:57;;;;;;;;;;;23.50;53.00;;;;;;1575155;74;1456;-74
2021/07/19 02:16:59;;;;;;;;;;;23.50;52.90;;;;;;1573180;74;669;-72
2021/07/19 02:19:02;;;;;;;;;;;23.50;52.90;;;;;;1571210;74;815;-73
2021/07/19 02:21:06;;;;;;;;;;;23.50;52.90;;;;;;1575889;74;1909;-72
2021/07/19 02:23:08;;;;;;;;;;;23.50;52.90;;;;;;1575672;74;706;-72
2021/07/19 02:25:10;;;;;;;;;;;23.50;52.90;;;;;;1567656;74;1148;-74
2021/07/19 02:27:12;;;;;;;;;;;23.50;52.80;;;;;;1580202;74;747;-73
2021/07/19 02:29:16;;;;;;;;;;;23.50;52.90;;;;;;1581484;74;718;-72
2021/07/19 02:31:18;;;;;;;;;;;23.50;52.80;;;;;;1578869;74;723;-73
2021/07/19 02:33:20;;;;;;;;;;;23.50;52.80;;;;;;1587208;74;818;-73
2021/07/19 02:35:23;;;;;;;;;;;23.50;52.80;;;;;;1588010;73;1167;-73
2021/07/19 02:37:25;;;;;;;;;;;23.50;52.80;;;;;;1585606;74;719;-73
2021/07/19 02:39:28;;;;;;;;;;;23.60;52.80;;;;;;1591519;74;758;-72
2021/07/19 02:41:29;;;;;;;;;;;23.50;52.80;;;;;;1575451;74;1937;-73
2021/07/19 02:43:32;;;;;;;;;;;23.50;52.80;;;;;;1590581;74;772;-73
2021/07/19 02:45:36;;;;;;;;;;;23.50;52.70;;;;;;1581136;74;1095;-73
2021/07/19 02:47:38;;;;;;;;;;;23.50;52.70;;;;;;1583554;74;948;-73
2021/07/19 02:49:39;;;;;;;;;;;23.50;52.70;;;;;;1583538;74;734;-73
2021/07/19 02:51:41;;;;;;;;;;;23.50;52.60;;;;;;1546707;75;747;-70
2021/07/19 02:53:43;;;;;;;;;;;23.60;52.60;;;;;;1581442;74;665;-73
2021/07/19 02:55:45;;;;;;;;;;;23.50;52.60;;;;;;1581835;74;1136;-73
2021/07/19 02:57:47;;;;;;;;;;;23.50;52.70;;;;;;1583538;74;709;-72
2021/07/19 02:59:49;;;;;;;;;;;23.50;52.60;;;;;;1576070;74;791;-73
2021/07/19 03:01:51;;;;;;;;;;;23.50;52.60;;;;;;1581951;74;1927;-71
2021/07/19 03:03:54;;;;;;;;;;;23.50;52.70;;;;;;1568710;74;744;-71
2021/07/19 03:06:04;;;;;;;;;;;23.50;52.60;;;;;;1575132;74;1075;-72
2021/07/19 03:08:06;;;;;;;;;;;23.50;52.50;;;;;;1588222;74;1406;-73
2021/07/19 03:10:08;;;;;;;;;;;23.50;52.50;;;;;;1572564;74;770;-72
2021/07/19 03:12:10;;;;;;;;;;;23.50;52.60;;;;;;1559377;74;708;-73
2021/07/19 03:14:14;;;;;;;;;;;23.50;52.50;;;;;;1579701;74;747;-73
2021/07/19 03:16:16;;;;;;;;;;;23.50;52.50;;;;;;1569578;74;1173;-72
2021/07/19 03:18:18;;;;;;;;;;;23.50;52.40;;;;;;1559464;74;733;-72
2021/07/19 03:20:19;;;;;;;;;;;23.50;52.40;;;;;;1558804;74;764;-72
2021/07/19 03:22:21;;;;;;;;;;;23.50;52.30;;;;;;1557269;74;1932;-71
2021/07/19 03:24:23;;;;;;;;;;;23.50;52.40;;;;;;1570464;74;812;-73
2021/07/19 03:26:26;;;;;;;;;;;23.50;52.30;;;;;;1577046;74;1124;-73
2021/07/19 03:28:27;;;;;;;;;;;23.50;52.30;;;;;;1574514;74;653;-72
2021/07/19 03:30:29;;;;;;;;;;;23.50;52.30;;;;;;1561807;74;678;-73
2021/07/19 03:32:31;;;;;;;;;;;23.50;52.20;;;;;;1583251;73;772;-75
2021/07/19 03:34:33;;;;;;;;;;;23.50;52.30;;;;;;1572224;74;780;-74
2021/07/19 03:36:35;;;;;;;;;;;23.50;52.30;;;;;;1585678;74;1146;-74
2021/07/19 03:38:37;;;;;;;;;;;23.50;52.20;;;;;;1575028;74;728;-74
2021/07/19 03:40:39;;;;;;;;;;;23.50;52.20;;;;;;1582653;74;1918;-72
2021/07/19 03:42:41;;;;;;;;;;;23.50;52.20;;;;;;1573755;74;738;-72
2021/07/19 03:44:43;;;;;;;;;;;23.50;52.20;;;;;;1571586;74;789;-72
2021/07/19 03:46:45;;;;;;;;;;;23.50;52.10;;;;;;1585340;74;1124;-72
2021/07/19 03:48:47;;;;;;;;;;;23.50;52.20;;;;;;1562276;74;726;-71
2021/07/19 03:50:49;;;;;;;;;;;23.40;52.10;;;;;;1562175;74;787;-72
2021/07/19 03:52:51;;;;;;;;;;;23.50;52.10;;;;;;1579582;74;839;-72
2021/07/19 03:54:53;;;;;;;;;;;23.50;52.20;;;;;;1581251;74;1131;-73
2021/07/19 03:56:54;;;;;;;;;;;23.40;52.00;;;;;;1577494;74;832;-70
2021/07/19 03:58:56;;;;;;;;;;;23.50;52.10;;;;;;1568017;74;702;-70
2021/07/19 04:00:58;;;;;;;;;;;23.50;52.10;;;;;;1572347;74;1930;-69
2021/07/19 04:03:04;;;;;;;;;;;23.50;52.10;;;;;;1572275;74;722;-70
2021/07/19 04:05:09;;;;;;;;;;;23.40;51.90;;;;;;1577494;74;1969;-71
2021/07/19 04:07:08;;;;;;;;;;;23.50;52.10;;;;;;1573122;74;1384;-72
2021/07/19 04:09:10;;;;;;;;;;;23.40;51.90;;;;;;1572817;74;735;-72
2021/07/19 04:11:15;;;;;;;;;;;23.50;52.00;;;;;;1581334;74;762;-71
2021/07/19 04:13:17;;;;;;;;;;;23.40;51.80;;;;;;1575763;74;970;-72
2021/07/19 04:15:20;;;;;;;;;;;23.40;51.80;;;;;;1584238;74;1177;-71
2021/07/19 04:17:22;;;;;;;;;;;23.40;52.00;;;;;;1571293;74;869;-72
2021/07/19 04:19:24;;;;;;;;;;;23.40;52.10;;;;;;1571966;74;710;-71
2021/07/19 04:21:26;;;;;;;;;;;23.50;52.20;;;;;;1558278;74;1941;-71
2021/07/19 04:23:28;;;;;;;;;;;23.50;52.20;;;;;;1568570;74;734;-71
2021/07/19 04:25:30;;;;;;;;;;;23.50;52.10;;;;;;1566422;74;1184;-71
2021/07/19 04:27:33;;;;;;;;;;;23.50;52.10;;;;;;1576101;74;804;-71
2021/07/19 04:29:35;;;;;;;;;;;23.50;52.10;;;;;;1558907;74;671;-72
2021/07/19 04:31:37;;;;;;;;;;;23.40;52.00;;;;;;1574717;74;758;-69
2021/07/19 04:33:40;;;;;;;;;;;23.50;52.10;;;;;;1574084;74;775;-71
2021/07/19 04:35:45;;;;;;;;;;;23.50;52.10;;;;;;1568059;74;1762;-73
2021/07/19 04:37:53;;;;;;;;;;;23.50;52.10;;;;;;1583879;74;1641;-73
2021/07/19 04:39:52;;;;;;;;;;;23.50;52.10;;;;;;1574362;74;1575;-73
2021/07/19 04:41:54;;;;;;;;;;;23.50;52.20;;;;;;1579955;74;1922;-74
2021/07/19 04:43:56;;;;;;;;;;;23.50;52.10;;;;;;1585478;74;738;-72
2021/07/19 04:45:58;;;;;;;;;;;23.50;52.10;;;;;;1562986;74;1145;-74
2021/07/19 04:48:00;;;;;;;;;;;23.50;52.10;;;;;;1582293;74;711;-70
2021/07/19 04:50:02;;;;;;;;;;;23.50;52.10;;;;;;1581731;74;789;-68
2021/07/19 04:52:04;;;;;;;;;;;23.50;52.30;;;;;;1563688;74;778;-69
2021/07/19 04:54:06;;;;;;;;;;;23.50;52.30;;;;;;1564101;74;723;-70
2021/07/19 04:56:08;;;;;;;;;;;23.60;52.20;;;;;;1560783;74;1136;-70
2021/07/19 04:58:10;;;;;;;;;;;23.50;52.20;;;;;;1558208;74;760;-69
2021/07/19 05:00:13;;;;;;;;;;;23.50;52.20;;;;;;1559604;74;724;-70
2021/07/19 05:02:16;;;;;;;;;;;23.50;52.20;;;;;;1563243;74;1939;-71
2021/07/19 05:04:18;;;;;;;;;;;23.50;52.30;;;;;;1559743;74;802;-70
2021/07/19 05:06:20;;;;;;;;;;;23.50;52.30;;;;;;1559701;74;1136;-70
2021/07/19 05:08:22;;;;;;;;;;;23.50;52.40;;;;;;1568631;74;760;-71
2021/07/19 05:10:26;;;;;;;;;;;23.40;52.30;;;;;;1554777;74;769;-72
2021/07/19 05:12:27;;;;;;;;;;;23.50;52.60;;;;;;1560597;74;2055;-70
2021/07/19 05:14:29;;;;;;;;;;;23.50;52.60;;;;;;1563297;74;812;-70
2021/07/19 05:16:32;;;;;;;;;;;23.40;52.60;;;;;;1565617;74;1167;-71
2021/07/19 05:18:34;;;;;;;;;;;23.50;52.80;;;;;;1576697;74;728;-70
2021/07/19 05:20:37;;;;;;;;;;;23.40;52.80;;;;;;1586883;74;803;-72
2021/07/19 05:22:39;;;;;;;;;;;23.40;52.80;;;;;;1560367;74;1910;-72
2021/07/19 05:24:41;;;;;;;;;;;23.40;52.90;;;;;;1557809;74;838;-72
2021/07/19 05:26:45;;;;;;;;;;;23.50;53.10;;;;;;1567457;74;1123;-71
2021/07/19 05:28:47;;;;;;;;;;;23.50;53.30;;;;;;1536868;75;803;-70
2021/07/19 05:30:50;;;;;;;;;;;23.40;53.30;;;;;;1564551;74;760;-74
2021/07/19 05:32:52;;;;;;;;;;;23.50;53.40;;;;;;1566870;74;769;-71
2021/07/19 05:34:54;;;;;;;;;;;23.50;53.50;;;;;;1572278;74;1119;-73
2021/07/19 05:36:56;;;;;;;;;;;23.50;53.60;;;;;;1578142;74;653;-71
2021/07/19 05:38:57;;;;;;;;;;;23.60;53.60;;;;;;1577418;74;819;-73
2021/07/19 05:40:59;;;;;;;;;;;23.50;53.70;;;;;;1561550;74;795;-74
2021/07/19 05:43:01;;;;;;;;;;;23.50;53.80;;;;;;1572575;74;1940;-72
2021/07/19 05:45:03;;;;;;;;;;;23.50;53.90;;;;;;1580282;74;1179;-71
2021/07/19 05:47:05;;;;;;;;;;;23.50;53.90;;;;;;1568880;74;725;-73
2021/07/19 05:49:07;;;;;;;;;;;23.50;53.90;;;;;;1565150;74;711;-70
2021/07/19 05:51:09;;;;;;;;;;;23.60;53.90;;;;;;1567070;74;777;-70
2021/07/19 05:53:11;;;;;;;;;;;23.60;53.90;;;;;;1577226;74;701;-72
2021/07/19 05:55:13;;;;;;;;;;;23.60;53.90;;;;;;1575053;74;1115;-73
2021/07/19 05:57:15;;;;;;;;;;;23.60;53.90;;;;;;1574649;74;801;-71
2021/07/19 05:59:17;;;;;;;;;;;23.70;53.90;;;;;;1575440;74;726;-71
2021/07/19 06:01:19;;;;;;;;;;;23.60;53.90;;;;;;1575709;74;794;-74
2021/07/19 06:03:22;;;;;;;;;;;23.60;53.80;;;;;;1580882;74;1941;-71
2021/07/19 06:05:24;;;;;;;;;;;23.60;53.80;;;;;;1567094;74;2029;-71
2021/07/19 06:07:26;;;;;;;;;;;23.60;53.80;;;;;;1559803;74;781;-72
2021/07/19 06:09:28;;;;;;;;;;;23.60;53.80;;;;;;1569905;74;766;-74
2021/07/19 06:11:30;;;;;;;;;;;23.60;53.80;;;;;;1564365;74;787;-71
2021/07/19 06:13:31;;;;;;;;;;;23.70;54.00;;;;;;1560107;74;793;-71
2021/07/19 06:15:33;;;;;;;;;;;23.60;53.90;;;;;;1560658;74;1184;-71
2021/07/19 06:17:40;;;;;;;;;;;23.60;53.90;;;;;;1558396;74;734;-69
2021/07/19 06:19:40;;;;;;;;;;;23.70;54.00;;;;;;1557922;74;1325;-70
2021/07/19 06:21:42;;;;;;;;;;;23.60;53.90;;;;;;1558024;74;1947;-68
2021/07/19 06:23:43;;;;;;;;;;;23.60;53.90;;;;;;1569870;74;662;-71
2021/07/19 06:25:45;;;;;;;;;;;23.70;54.10;;;;;;1566228;74;1138;-71
2021/07/19 06:27:47;;;;;;;;;;;23.80;53.90;;;;;;1563946;74;802;-70
2021/07/19 06:29:49;;;;;;;;;;;23.80;53.90;;;;;;1559924;74;791;-71
2021/07/19 06:31:51;;;;;;;;;;;23.80;53.90;;;;;;1555164;74;723;-68
2021/07/19 06:33:53;;;;;;;;;;;23.80;53.90;;;;;;1563153;74;717;-72
2021/07/19 06:35:55;;;;;;;;;;;23.90;53.90;;;;;;1560254;74;1161;-70
2021/07/19 06:37:57;;;;;;;;;;;23.90;53.90;;;;;;1561479;74;748;-71
2021/07/19 06:39:58;;;;;;;;;;;24.00;53.80;;;;;;1564808;74;824;-72
2021/07/19 06:42:00;;;;;;;;;;;24.00;53.80;;;;;;1557920;74;1963;-73
2021/07/19 06:44:02;;;;;;;;;;;24.00;53.80;;;;;;1560405;74;727;-74
2021/07/19 06:46:04;;;;;;;;;;;23.90;54.50;;;;;;1562254;74;1145;-72
2021/07/19 06:48:06;;;;;;;;;;;23.90;54.40;;;;;;1561675;74;675;-71
2021/07/19 06:50:09;;;;;;;;;;;24.00;54.00;;;;;;1558537;74;775;-72
2021/07/19 06:52:11;;;;;;;;;;;24.10;53.80;;;;;;1561691;74;561;-72
2021/07/19 06:54:14;;;;;;;;;;;24.10;53.70;;;;;;1564442;74;732;-73
2021/07/19 06:56:16;;;;;;;;;;;24.10;53.60;;;;;;1555998;74;1152;-72
2021/07/19 06:58:17;;;;;;;;;;;24.00;53.50;;;;;;1555171;74;750;-73
2021/07/19 07:00:19;;;;;;;;;;;24.00;53.40;;;;;;1562059;74;789;-71
2021/07/19 07:02:21;;;;;;;;;;;24.00;53.40;;;;;;1574490;74;1934;-73
2021/07/19 07:04:23;;;;;;;;;;;24.00;53.40;;;;;;1569599;74;741;-72
2021/07/19 07:06:25;;;;;;;;;;;24.10;53.50;;;;;;1561561;74;1172;-72
2021/07/19 07:08:27;;;;;;;;;;;24.00;53.40;;;;;;1570641;74;754;-74
2021/07/19 07:10:29;;;;;;;;;;;24.00;53.40;;;;;;1581147;74;748;-74
2021/07/19 07:12:31;;;;;;;;;;;24.00;53.30;;;;;;1566107;74;707;-73
2021/07/19 07:14:33;;;;;;;;;;;24.00;53.40;;;;;;1566483;74;755;-71
2021/07/19 07:16:35;;;;;;;;;;;24.00;53.40;;;;;;1563510;74;1115;-71
2021/07/19 07:18:37;;;;;;;;;;;24.00;53.40;;;;;;1569991;74;787;-72
2021/07/19 07:20:39;;;;;;;;;;;24.00;53.40;;;;;;1571908;74;791;-69
2021/07/19 07:22:41;;;;;;;;;;;24.00;53.40;;;;;;1575891;74;1936;-72
2021/07/19 07:24:43;;;;;;;;;;;24.00;53.40;;;;;;1565018;74;721;-72
2021/07/19 07:26:45;;;;;;;;;;;24.00;53.40;;;;;;1587375;72;3078;-71
2021/07/19 07:28:47;;;;;;;;;;;24.00;53.50;;;;;;1594095;73;745;-72
2021/07/19 07:30:48;;;;;;;;;;;24.10;53.60;;;;;;1610988;73;806;-72
2021/07/19 07:32:50;;;;;;;;;;;24.00;53.50;;;;;;1600371;73;784;-71
2021/07/19 07:34:52;;;;;;;;;;;24.00;53.80;;;;;;1601666;73;764;-71
2021/07/19 07:36:54;;;;;;;;;;;24.00;53.80;;;;;;1578643;74;1204;-71
2021/07/19 07:38:56;;;;;;;;;;;24.10;54.20;;;;;;1576044;74;717;-71
2021/07/19 07:40:58;;;;;;;;;;;24.10;54.30;;;;;;1579403;74;775;-70
2021/07/19 07:43:00;;;;;;;;;;;24.00;55.20;;;;;;1581677;73;1919;-69
2021/07/19 07:45:02;;;;;;;;;;;24.00;55.10;;;;;;1573171;74;799;-71
2021/07/19 07:47:04;;;;;;;;;;;24.10;55.10;;;;;;1589758;73;1177;-71
2021/07/19 07:49:06;;;;;;;;;;;24.00;55.00;;;;;;1587432;74;656;-71
2021/07/19 07:51:08;;;;;;;;;;;24.10;55.70;;;;;;1567041;74;703;-70
2021/07/19 07:53:10;;;;;;;;;;;24.00;55.70;;;;;;1567003;74;721;-69
2021/07/19 07:55:12;;;;;;;;;;;24.20;55.50;;;;;;1574918;74;704;-73
2021/07/19 07:57:14;;;;;;;;;;;24.20;55.30;;;;;;1568883;73;1611;-71
2021/07/19 07:59:16;;;;;;;;;;;24.30;54.90;;;;;;1563455;74;736;-73
2021/07/19 08:01:18;;;;;;;;;;;24.40;54.40;;;;;;1577270;74;758;-71
2021/07/19 08:03:20;;;;;;;;;;;24.40;54.60;;;;;;1574157;74;1928;-71
2021/07/19 08:05:22;;;;;;;;;;;24.40;54.60;;;;;;1575762;73;1122;-71
2021/07/19 08:07:24;;;;;;;;;;;24.40;54.40;;;;;;1586806;74;760;-72
2021/07/19 08:09:26;;;;;;;;;;;24.40;54.70;;;;;;1580417;74;767;-71
2021/07/19 08:11:28;;;;;;;;;;;24.40;54.90;;;;;;1585824;74;782;-72
2021/07/19 08:13:30;;;;;;;;;;;24.40;55.00;;;;;;1580812;74;724;-69
2021/07/19 08:15:35;;;;;;;;;;;24.50;54.80;;;;;;1576781;74;1133;-71
2021/07/19 08:17:37;;;;;;;;;;;24.50;54.80;;;;;;1585314;74;751;-70
2021/07/19 08:19:39;;;;;;;;;;;24.50;54.70;;;;;;1582230;74;776;-71
2021/07/19 08:21:41;;;;;;;;;;;24.50;54.70;;;;;;1571891;73;773;-72
2021/07/19 08:23:43;;;;;;;;;;;24.60;54.50;;;;;;1574617;74;1942;-72
2021/07/19 08:25:44;;;;;;;;;;;24.60;54.30;;;;;;1575088;74;1147;-72
2021/07/19 08:27:47;;;;;;;;;;;24.70;53.90;;;;;;1580468;74;761;-71
2021/07/19 08:29:49;;;;;;;;;;;24.70;53.80;;;;;;1579067;74;706;-70
2021/07/19 08:31:51;;;;;;;;;;;24.70;53.70;;;;;;1583101;74;727;-70
2021/07/19 08:33:53;;;;;;;;;;;24.70;53.70;;;;;;1580504;74;669;-71
2021/07/19 08:35:55;;;;;;;;;;;24.70;54.00;;;;;;1586069;74;1135;-73
2021/07/19 08:38:01;;;;;;;;;;;24.70;53.90;;;;;;1586337;73;726;-72
2021/07/19 08:40:03;;;;;;;;;;;24.70;54.00;;;;;;1577325;74;730;-69
2021/07/19 08:42:05;;;;;;;;;;;24.80;54.10;;;;;;1564959;74;659;-73
2021/07/19 08:44:09;;;;;;;;;;;24.80;54.00;;;;;;1555736;74;1943;-71
2021/07/19 08:46:11;;;;;;;;;;;24.80;53.80;;;;;;1561637;74;1618;-70
2021/07/19 08:48:12;;;;;;;;;;;24.80;53.70;;;;;;1558865;74;749;-74
2021/07/19 08:50:15;;;;;;;;;;;24.80;53.60;;;;;;1561124;74;727;-68
2021/07/19 08:52:17;;;;;;;;;;;24.80;53.60;;;;;;1583738;74;768;-69
2021/07/19 08:54:18;;;;;;;;;;;24.80;53.70;;;;;;1584554;73;738;-70
2021/07/19 08:56:20;;;;;;;;;;;24.80;53.80;;;;;;1577483;74;1139;-72
2021/07/19 08:58:22;;;;;;;;;;;24.80;53.90;;;;;;1562492;75;824;-71
2021/07/19 09:00:24;;;;;;;;;;;24.70;53.90;;;;;;1574360;74;781;-70
2021/07/19 09:02:26;;;;;;;;;;;24.80;53.80;;;;;;1575951;74;800;-69
2021/07/19 09:04:28;;;;;;;;;;;24.70;53.60;;;;;;1556548;75;1976;-72
2021/07/19 09:06:30;;;;;;;;;;;24.80;53.30;;;;;;1579180;74;1120;-68
2021/07/19 09:08:32;;;;;;;;;;;24.80;52.40;;;;;;1588211;73;786;-64
2021/07/19 09:10:34;;;;;;;;;;;24.70;52.80;;;;;;1573747;74;822;-66
2021/07/19 09:12:38;;;;;;;;;;;24.80;52.90;;;;;;1571339;74;711;-69
2021/07/19 09:14:40;;;;;;;;;;;24.80;52.80;;;;;;1555881;75;782;-69
2021/07/19 09:16:42;;;;;;;;;;;24.80;52.80;;;;;;1527871;75;1142;-70
2021/07/19 09:18:44;;;;;;;;;;;24.80;52.70;;;;;;1568682;74;626;-70
2021/07/19 09:20:46;;;;;;;;;;;24.70;52.70;;;;;;1573526;74;782;-70
2021/07/19 09:22:50;;;;;;;;;;;24.80;52.50;;;;;;1573377;74;1923;-71
2021/07/19 09:24:52;;;;;;;;;;;24.80;52.30;;;;;;1570682;74;1782;-70
2021/07/19 09:26:54;;;;;;;;;;;24.80;52.50;;;;;;1576716;74;1178;-70
2021/07/19 09:28:58;;;;;;;;;;;24.70;52.60;;;;;;1572947;74;698;-70
2021/07/19 09:31:07;;;;;;;;;;;24.70;52.80;;;;;;1576946;74;1135;-68
2021/07/19 09:33:09;;;;;;;;;;;24.80;52.60;;;;;;1585127;74;710;-69
2021/07/19 09:35:11;;;;;;;;;;;24.70;52.70;;;;;;1578283;74;709;-71
2021/07/19 09:37:13;;;;;;;;;;;24.70;52.60;;;;;;1586030;73;1094;-71
2021/07/19 09:39:15;;;;;;;;;;;24.70;52.60;;;;;;1583158;74;738;-71
2021/07/19 09:41:18;;;;;;;;;;;24.70;52.70;;;;;;1589494;74;696;-70
2021/07/19 09:43:26;;;;;;;;;;;24.70;52.80;;;;;;1576186;74;1950;-69
2021/07/19 09:45:31;;;;;;;;;;;24.60;52.70;;;;;;1561473;73;1584;-70
2021/07/19 09:47:34;;;;;;;;;;;24.60;52.70;;;;;;1566785;73;782;-69
2021/07/19 09:49:36;;;;;;;;;;;24.50;52.80;;;;;;1564659;75;774;-67
2021/07/19 09:51:38;;;;;;;;;;;24.40;53.00;;;;;;1576936;74;796;-70
2021/07/19 09:53:41;;;;;;;;;;;24.40;53.10;;;;;;1576648;74;756;-69
2021/07/19 09:55:43;;;;;;;;;;;24.40;53.00;;;;;;1578499;74;1175;-69
2021/07/19 09:57:55;;;;;;;;;;;24.50;53.00;;;;;;1580340;74;706;-69
2021/07/19 09:59:57;;;;;;;;;;;24.50;52.80;;;;;;1573783;74;792;-67
2021/07/19 10:01:59;;;;;;;;;;;24.50;52.80;;;;;;1575349;74;737;-67
2021/07/19 10:04:04;;;;;;;;;;;24.50;52.90;;;;;;1583876;74;1937;-69
2021/07/19 10:06:09;;;;;;;;;;;24.50;52.80;;;;;;1574403;74;1123;-71
2021/07/19 10:08:12;;;;;;;;;;;24.50;52.70;;;;;;1579797;74;779;-72
2021/07/19 10:10:15;;;;;;;;;;;24.50;52.80;;;;;;1572766;74;2001;-71
2021/07/19 10:12:17;;;;;;;;;;;24.30;52.70;;;;;;1575613;74;749;-70
2021/07/19 10:14:29;;;;;;;;;;;24.40;52.70;;;;;;1583383;74;765;-70
2021/07/19 10:16:32;;;;;;;;;;;24.40;52.80;;;;;;1583249;74;1484;-71
2021/07/19 10:18:34;;;;;;;;;;;24.50;52.80;;;;;;1577210;74;777;-69
2021/07/19 10:20:37;;;;;;;;;;;24.40;52.70;;;;;;1571096;74;762;-68
2021/07/19 10:22:39;;;;;;;;;;;24.40;52.20;;;;;;1578364;74;760;-69
2021/07/19 10:24:41;;;;;;;;;;;24.40;52.60;;;;;;1569647;74;1978;-71
2021/07/19 10:26:45;;;;;;;;;;;24.50;52.50;;;;;;1568401;73;1146;-69
2021/07/19 10:28:47;;;;;;;;;;;24.40;52.50;;;;;;1560880;74;831;-67
2021/07/19 10:30:48;;;;;;;;;;;24.50;52.60;;;;;;1555984;74;739;-70
2021/07/19 10:32:50;;;;;;;;;;;24.40;52.60;;;;;;1561779;74;781;-70
2021/07/19 10:34:53;;;;;;;;;;;24.40;52.60;;;;;;1577668;74;787;-72
2021/07/19 10:36:57;;;;;;;;;;;24.40;52.60;;;;;;1573105;74;1131;-69
2021/07/19 10:39:02;;;;;;;;;;;24.50;52.60;;;;;;1588827;74;1748;-69
2021/07/19 10:41:04;;;;;;;;;;;24.40;52.70;;;;;;1579484;74;697;-73
2021/07/19 10:43:13;;;;;;;;;;;24.50;52.50;;;;;;1568148;74;753;-67
2021/07/19 10:45:18;;;;;;;;;;;24.50;52.50;;;;;;1566188;74;885;-67
2021/07/19 10:47:27;;;;;;;;;;;24.50;52.30;;;;;;1557634;74;742;-74
2021/07/19 10:49:26;;;;;;;;;;;24.50;52.20;;;;;;1557876;75;1630;-70
2021/07/19 10:51:28;;;;;;;;;;;24.50;52.00;;;;;;1562362;74;1165;-71
2021/07/19 10:53:31;;;;;;;;;;;24.40;51.90;;;;;;1533946;75;1238;-71
2021/07/19 10:55:33;;;;;;;;;;;24.40;51.70;;;;;;1557156;74;1153;-74
2021/07/19 10:57:40;;;;;;;;;;;24.50;51.60;;;;;;1574516;74;964;-72
2021/07/19 10:59:42;;;;;;;;;;;24.40;51.50;;;;;;1569305;74;972;-70
2021/07/19 11:01:46;;;;;;;;;;;24.30;51.60;;;;;;1534212;75;666;-74
2021/07/19 11:03:48;;;;;;;;;;;24.50;51.50;;;;;;1567255;74;1951;-71
2021/07/19 11:05:53;;;;;;;;;;;24.50;51.70;;;;;;1573933;74;1140;-75
2021/07/19 11:07:55;;;;;;;;;;;24.50;51.50;;;;;;1575997;73;713;-70
2021/07/19 11:09:58;;;;;;;;;;;24.50;51.30;;;;;;1546275;76;805;-70
2021/07/19 11:12:01;;;;;;;;;;;24.50;51.40;;;;;;1567618;74;780;-72
2021/07/19 11:14:05;;;;;;;;;;;24.50;51.30;;;;;;1565831;74;1849;-68
2021/07/19 11:16:16;;;;;;;;;;;24.40;50.90;;;;;;1572751;74;1895;-68
2021/07/19 11:18:19;;;;;;;;;;;24.50;51.10;;;;;;1574652;74;718;-68
2021/07/19 11:20:20;;;;;;;;;;;24.30;50.80;;;;;;1570421;74;730;-71
2021/07/19 11:22:23;;;;;;;;;;;24.40;51.10;;;;;;1569966;74;789;-68
2021/07/19 11:24:25;;;;;;;;;;;24.40;50.90;;;;;;1572491;74;1918;-68
2021/07/19 11:26:29;;;;;;;;;;;24.40;50.80;;;;;;1576997;73;1158;-69
2021/07/19 11:28:31;;;;;;;;;;;24.40;50.80;;;;;;1576438;74;789;-71
2021/07/19 11:30:33;;;;;;;;;;;24.50;50.80;;;;;;1577402;74;706;-72
2021/07/19 11:32:35;;;;;;;;;;;24.30;50.70;;;;;;1567050;74;775;-71
2021/07/19 11:34:38;;;;;;;;;;;24.40;50.70;;;;;;1570116;74;753;-73
2021/07/19 11:36:46;;;;;;;;;;;24.40;50.00;;;;;;1579186;74;1135;-70
2021/07/19 11:38:48;;;;;;;;;;;24.30;50.50;;;;;;1590724;74;777;-68
2021/07/19 11:40:50;;;;;;;;;;;24.40;50.20;;;;;;1587864;74;686;-68
2021/07/19 11:42:52;;;;;;;;;;;24.30;50.30;;;;;;1579524;74;689;-68
2021/07/19 11:45:05;;;;;;;;;;;24.30;50.20;;;;;;1577956;74;1926;-68
2021/07/19 11:47:07;;;;;;;;;;;24.20;50.40;;;;;;1558942;74;1160;-69
2021/07/19 11:49:12;;;;;;;;;;;24.30;50.50;;;;;;1582350;74;639;-75
2021/07/19 11:51:14;;;;;;;;;;;24.30;50.40;;;;;;1574675;74;928;-68
2021/07/19 11:53:18;;;;;;;;;;;24.40;50.40;;;;;;1579507;74;824;-69
2021/07/19 11:55:20;;;;;;;;;;;24.50;50.30;;;;;;1580968;74;1961;-71
2021/07/19 11:57:22;;;;;;;;;;;24.50;50.20;;;;;;1576664;74;696;-69
2021/07/19 11:59:25;;;;;;;;;;;24.50;50.10;;;;;;1583293;73;717;-72
2021/07/19 12:01:28;;;;;;;;;;;24.50;50.10;;;;;;1572192;74;783;-66
2021/07/19 12:03:30;;;;;;;;;;;24.50;49.80;;;;;;1569593;74;1878;-69
2021/07/19 12:05:32;;;;;;;;;;;24.50;49.90;;;;;;1565641;74;1981;-69
2021/07/19 12:07:34;;;;;;;;;;;24.50;50.00;;;;;;1567935;74;776;-69
2021/07/19 12:09:36;;;;;;;;;;;24.40;50.00;;;;;;1581947;74;742;-69
2021/07/19 12:11:38;;;;;;;;;;;24.40;50.20;;;;;;1581772;74;680;-71